createdAt,value
2019-03-24T00:00:37.708Z,100951.86
2019-03-24T00:03:06.647Z,100954.90
2019-03-24T00:05:35.559Z,100955.13
2019-03-24T00:08:05.475Z,100957.30
2019-03-24T00:10:34.432Z,100960.96
2019-03-24T00:13:05.240Z,100958.27
2019-03-24T00:15:34.593Z,100959.39
2019-03-24T00:18:04.528Z,100957.86
2019-03-24T00:20:33.614Z,100963.23
2019-03-24T00:23:02.588Z,100957.11
2019-03-24T00:25:31.497Z,100957.73
2019-03-24T00:28:00.412Z,100956.23
2019-03-24T00:30:29.303Z,100958.30
2019-03-24T00:32:58.188Z,100951.22
2019-03-24T00:35:27.396Z,100956.72
2019-03-24T00:37:56.264Z,100951.30
2019-03-24T00:40:26.280Z,100946.13
2019-03-24T00:42:55.186Z,100946.53
2019-03-24T00:45:24.090Z,100946.68
2019-03-24T00:47:53.166Z,100937.48
2019-03-24T00:50:22.072Z,100938.85
2019-03-24T00:52:51.714Z,100936.93
2019-03-24T00:55:21.818Z,100928.18
2019-03-24T00:57:50.801Z,100930.03
2019-03-24T01:00:42.585Z,100934.12
2019-03-24T01:03:11.894Z,100929.09
2019-03-24T01:05:41.047Z,100929.44
2019-03-24T01:08:10.214Z,100925.91
2019-03-24T01:10:42.018Z,100927.77
2019-03-24T01:13:13.896Z,100923.07
2019-03-24T01:15:47.792Z,100922.05
2019-03-24T01:18:15.125Z,100919.69
2019-03-24T01:20:44.201Z,100918.03
2019-03-24T01:23:13.832Z,100915.70
2019-03-24T01:25:42.762Z,100917.27
2019-03-24T01:28:11.627Z,100919.20
2019-03-24T01:30:40.516Z,100915.52
2019-03-24T01:33:09.706Z,100915.67
2019-03-24T01:35:38.606Z,100911.69
2019-03-24T01:38:07.781Z,100909.95
2019-03-24T01:40:36.653Z,100914.48
2019-03-24T01:43:05.524Z,100913.43
2019-03-24T01:45:34.428Z,100910.86
2019-03-24T01:48:03.384Z,100913.66
2019-03-24T01:50:32.279Z,100919.50
2019-03-24T01:53:01.149Z,100914.08
2019-03-24T01:55:30.058Z,100907.45
2019-03-24T01:57:58.953Z,100902.02
2019-03-24T02:00:28.260Z,100902.27
2019-03-24T02:02:57.280Z,100901.83
2019-03-24T02:05:27.429Z,100905.81
2019-03-24T02:07:56.478Z,100899.53
2019-03-24T02:10:25.408Z,100898.98
2019-03-24T02:12:54.390Z,100889.61
2019-03-24T02:15:23.375Z,100890.23
2019-03-24T02:17:54.028Z,100898.30
2019-03-24T02:20:23.555Z,100889.09
2019-03-24T02:22:52.506Z,100880.69
2019-03-24T02:25:21.773Z,100884.05
2019-03-24T02:27:50.739Z,100890.23
2019-03-24T02:30:19.617Z,100883.61
2019-03-24T02:32:48.613Z,100880.31
2019-03-24T02:35:17.501Z,100879.25
2019-03-24T02:37:46.699Z,100882.95
2019-03-24T02:40:15.630Z,100885.45
2019-03-24T02:42:44.559Z,100885.24
2019-03-24T02:45:14.949Z,100879.44
2019-03-24T02:47:43.935Z,100879.71
2019-03-24T02:50:14.213Z,100880.80
2019-03-24T02:52:44.926Z,100878.56
2019-03-24T02:55:15.105Z,100873.38
2019-03-24T02:57:44.098Z,100879.34
2019-03-24T03:00:13.514Z,100864.55
2019-03-24T03:02:42.761Z,100870.83
2019-03-24T03:05:11.760Z,100875.21
2019-03-24T03:07:41.631Z,100873.22
2019-03-24T03:10:10.813Z,100872.62
2019-03-24T03:12:39.675Z,100870.47
2019-03-24T03:15:09.192Z,100867.99
2019-03-24T03:17:38.508Z,100874.64
2019-03-24T03:20:08.904Z,100870.63
2019-03-24T03:22:37.865Z,100882.13
2019-03-24T03:25:07.030Z,100878.94
2019-03-24T03:27:36.159Z,100883.72
2019-03-24T03:30:06.219Z,100878.66
2019-03-24T03:32:35.128Z,100876.89
2019-03-24T03:35:05.008Z,100872.86
2019-03-24T03:37:33.987Z,100873.00
2019-03-24T03:40:03.868Z,100870.52
2019-03-24T03:42:32.945Z,100873.12
2019-03-24T03:45:02.583Z,100876.69
2019-03-24T03:47:31.899Z,100872.66
2019-03-24T03:50:00.798Z,100866.98
2019-03-24T03:52:30.017Z,100877.80
2019-03-24T03:54:59.158Z,100883.70
2019-03-24T03:57:28.804Z,100888.22
2019-03-24T03:59:57.944Z,100887.27
2019-03-24T04:02:26.814Z,100881.02
2019-03-24T04:04:56.038Z,100881.50
2019-03-24T04:07:26.776Z,100882.89
2019-03-24T04:09:55.917Z,100880.89
2019-03-24T04:12:25.012Z,100876.64
2019-03-24T04:14:54.182Z,100873.34
2019-03-24T04:17:23.062Z,100874.64
2019-03-24T04:19:53.066Z,100879.50
2019-03-24T04:22:22.138Z,100882.67
2019-03-24T04:24:55.813Z,100881.85
2019-03-24T04:27:24.727Z,100885.06
2019-03-24T04:29:53.569Z,100888.27
2019-03-24T04:32:22.472Z,100891.44
2019-03-24T04:34:51.625Z,100891.70
2019-03-24T04:37:20.481Z,100893.70
2019-03-24T04:39:49.397Z,100895.59
2019-03-24T04:42:18.258Z,100888.39
2019-03-24T04:44:47.115Z,100895.84
2019-03-24T04:47:17.038Z,100888.03
2019-03-24T04:49:45.942Z,100894.05
2019-03-24T04:52:14.852Z,100886.97
2019-03-24T04:54:44.032Z,100891.69
2019-03-24T04:57:12.917Z,100892.62
2019-03-24T04:59:41.794Z,100891.31
2019-03-24T05:02:10.690Z,100889.56
2019-03-24T05:04:39.517Z,100887.06
2019-03-24T05:07:09.589Z,100883.28
2019-03-24T05:09:38.543Z,100880.31
2019-03-24T05:12:07.401Z,100872.60
2019-03-24T05:14:36.292Z,100870.48
2019-03-24T05:17:05.157Z,100877.57
2019-03-24T05:19:34.004Z,100878.99
2019-03-24T05:22:02.876Z,100875.09
2019-03-24T05:24:31.786Z,100880.29
2019-03-24T05:27:00.630Z,100887.61
2019-03-24T05:29:29.491Z,100877.57
2019-03-24T05:31:58.358Z,100880.87
2019-03-24T05:34:27.285Z,100874.25
2019-03-24T05:36:56.120Z,100882.31
2019-03-24T05:39:25.064Z,100885.62
2019-03-24T05:41:54.340Z,100883.37
2019-03-24T05:44:23.362Z,100879.38
2019-03-24T05:46:52.253Z,100882.33
2019-03-24T05:49:21.254Z,100884.92
2019-03-24T05:51:50.162Z,100881.50
2019-03-24T05:54:19.070Z,100884.10
2019-03-24T05:56:47.914Z,100881.37
2019-03-24T05:59:18.311Z,100883.03
2019-03-24T06:01:47.514Z,100892.36
2019-03-24T06:04:16.575Z,100900.06
2019-03-24T06:06:46.516Z,100893.45
2019-03-24T06:09:16.609Z,100901.00
2019-03-24T06:11:45.514Z,100900.31
2019-03-24T06:14:14.403Z,100900.19
2019-03-24T06:16:43.272Z,100901.72
2019-03-24T06:19:12.217Z,100898.42
2019-03-24T06:21:41.071Z,100897.00
2019-03-24T06:24:10.325Z,100900.30
2019-03-24T06:26:39.657Z,100899.27
2019-03-24T06:29:08.555Z,100902.09
2019-03-24T06:31:37.409Z,100906.59
2019-03-24T06:34:06.348Z,100895.95
2019-03-24T06:36:36.212Z,100901.28
2019-03-24T06:39:06.783Z,100901.16
2019-03-24T06:41:36.080Z,100900.09
2019-03-24T06:44:04.946Z,100898.56
2019-03-24T06:46:35.727Z,100906.85
2019-03-24T06:49:04.708Z,100901.53
2019-03-24T06:51:33.569Z,100905.41
2019-03-24T06:54:02.857Z,100900.11
2019-03-24T06:56:31.716Z,100900.80
2019-03-24T06:59:00.641Z,100898.64
2019-03-24T07:01:29.547Z,100901.23
2019-03-24T07:03:58.441Z,100901.66
2019-03-24T07:06:27.312Z,100904.60
2019-03-24T07:08:56.223Z,100901.14
2019-03-24T07:11:25.247Z,100901.81
2019-03-24T07:13:54.271Z,100899.14
2019-03-24T07:16:23.178Z,100896.73
2019-03-24T07:18:52.098Z,100891.79
2019-03-24T07:21:21.429Z,100886.34
2019-03-24T07:23:50.389Z,100890.37
2019-03-24T07:26:19.423Z,100883.31
2019-03-24T07:28:48.273Z,100885.47
2019-03-24T07:31:18.650Z,100885.30
2019-03-24T07:33:47.508Z,100885.02
2019-03-24T07:36:16.426Z,100884.47
2019-03-24T07:38:47.107Z,100884.58
2019-03-24T07:41:17.604Z,100888.62
2019-03-24T07:43:46.455Z,100883.44
2019-03-24T07:46:15.374Z,100887.16
2019-03-24T07:48:44.413Z,100883.53
2019-03-24T07:51:13.312Z,100883.38
2019-03-24T07:53:42.597Z,100887.07
2019-03-24T07:56:11.514Z,100891.06
2019-03-24T07:58:40.458Z,100894.37
2019-03-24T08:01:09.402Z,100892.17
2019-03-24T08:03:39.488Z,100891.46
2019-03-24T08:06:08.489Z,100889.40
2019-03-24T08:08:44.233Z,100889.69
2019-03-24T08:11:12.345Z,100893.84
2019-03-24T08:13:52.934Z,100889.14
2019-03-24T08:16:12.021Z,100888.52
2019-03-24T08:18:40.863Z,100881.33
2019-03-24T08:21:09.731Z,100881.81
2019-03-24T08:23:38.593Z,100883.80
2019-03-24T08:26:07.514Z,100891.98
2019-03-24T08:28:36.478Z,100887.66
2019-03-24T08:31:05.436Z,100891.17
2019-03-24T08:33:35.747Z,100889.39
2019-03-24T08:36:04.679Z,100891.64
2019-03-24T08:38:33.515Z,100894.86
2019-03-24T08:41:02.648Z,100885.70
2019-03-24T08:43:31.886Z,100877.50
2019-03-24T08:46:00.897Z,100875.97
2019-03-24T08:48:40.124Z,100864.51
2019-03-24T08:51:00.782Z,100872.55
2019-03-24T08:53:29.628Z,100868.13
2019-03-24T08:55:58.940Z,100865.79
2019-03-24T08:58:27.836Z,100868.05
2019-03-24T09:00:57.093Z,100877.84
2019-03-24T09:03:25.909Z,100867.14
2019-03-24T09:05:56.586Z,100869.23
2019-03-24T09:08:25.643Z,100863.53
2019-03-24T09:10:54.672Z,100857.91
2019-03-24T09:13:23.663Z,100850.61
2019-03-24T09:15:54.226Z,100851.36
2019-03-24T09:18:23.115Z,100844.20
2019-03-24T09:20:52.449Z,100841.84
2019-03-24T09:23:21.454Z,100838.59
2019-03-24T09:25:50.771Z,100834.21
2019-03-24T09:28:19.877Z,100824.42
2019-03-24T09:30:48.925Z,100822.36
2019-03-24T09:33:18.956Z,100817.95
2019-03-24T09:35:47.848Z,100819.02
2019-03-24T09:38:16.780Z,100814.89
2019-03-24T09:40:45.805Z,100813.84
2019-03-24T09:43:14.739Z,100821.53
2019-03-24T09:45:43.623Z,100812.91
2019-03-24T09:48:12.585Z,100814.48
2019-03-24T09:50:41.500Z,100814.97
2019-03-24T09:53:10.672Z,100807.13
2019-03-24T09:55:39.549Z,100806.12
2019-03-24T09:58:08.467Z,100799.87
2019-03-24T10:00:37.360Z,100803.39
2019-03-24T10:03:06.821Z,100798.68
2019-03-24T10:05:35.731Z,100795.35
2019-03-24T10:08:04.909Z,100792.25
2019-03-24T10:10:33.793Z,100785.73
2019-03-24T10:13:02.927Z,100784.82
2019-03-24T10:15:32.643Z,100780.66
2019-03-24T10:18:01.580Z,100778.31
2019-03-24T10:20:30.757Z,100781.76
2019-03-24T10:22:59.787Z,100777.47
2019-03-24T10:25:28.699Z,100777.86
2019-03-24T10:27:57.741Z,100774.41
2019-03-24T10:30:26.641Z,100775.98
2019-03-24T10:32:55.959Z,100771.14
2019-03-24T10:35:24.805Z,100767.41
2019-03-24T10:37:54.457Z,100767.55
2019-03-24T10:40:28.598Z,100772.48
2019-03-24T10:42:54.188Z,100772.14
2019-03-24T10:45:23.065Z,100773.79
2019-03-24T10:47:53.173Z,100768.91
2019-03-24T10:50:22.056Z,100761.69
2019-03-24T10:52:52.246Z,100751.91
2019-03-24T10:55:22.298Z,100754.77
2019-03-24T10:57:52.422Z,100754.49
2019-03-24T11:00:40.414Z,100757.44
2019-03-24T11:03:09.362Z,100751.05
2019-03-24T11:05:38.628Z,100747.94
2019-03-24T11:08:07.512Z,100745.50
2019-03-24T11:10:36.556Z,100749.23
2019-03-24T11:13:07.460Z,100750.66
2019-03-24T11:15:37.441Z,100744.30
2019-03-24T11:18:09.305Z,100752.75
2019-03-24T11:20:38.579Z,100746.56
2019-03-24T11:23:07.730Z,100737.81
2019-03-24T11:25:36.568Z,100742.47
2019-03-24T11:28:05.443Z,100744.91
2019-03-24T11:30:34.344Z,100737.95
2019-03-24T11:33:04.338Z,100732.11
2019-03-24T11:35:33.311Z,100733.47
2019-03-24T11:38:02.183Z,100727.53
2019-03-24T11:40:31.105Z,100719.19
2019-03-24T11:43:00.043Z,100716.23
2019-03-24T11:45:28.859Z,100712.13
2019-03-24T11:47:58.149Z,100708.09
2019-03-24T11:50:27.006Z,100713.97
2019-03-24T11:52:55.885Z,100713.34
2019-03-24T11:55:24.761Z,100702.44
2019-03-24T11:58:05.097Z,100696.62
2019-03-24T12:00:44.923Z,100700.52
2019-03-24T12:03:14.018Z,100700.86
2019-03-24T12:05:42.885Z,100698.52
2019-03-24T12:08:12.046Z,100703.63
2019-03-24T12:10:40.919Z,100703.33
2019-03-24T12:13:11.650Z,100697.64
2019-03-24T12:15:40.550Z,100691.17
2019-03-24T12:18:09.542Z,100691.25
2019-03-24T12:20:38.483Z,100686.43
2019-03-24T12:23:07.751Z,100685.61
2019-03-24T12:25:36.594Z,100681.81
2019-03-24T12:28:05.469Z,100673.81
2019-03-24T12:30:34.590Z,100670.10
2019-03-24T12:33:03.634Z,100662.64
2019-03-24T12:35:32.451Z,100665.73
2019-03-24T12:38:02.382Z,100666.47
2019-03-24T12:40:31.381Z,100652.09
2019-03-24T12:43:00.281Z,100662.38
2019-03-24T12:45:29.125Z,100658.36
2019-03-24T12:47:58.079Z,100659.80
2019-03-24T12:50:31.640Z,100652.08
2019-03-24T12:52:57.792Z,100648.09
2019-03-24T12:55:27.997Z,100648.44
2019-03-24T12:57:57.036Z,100650.11
2019-03-24T13:00:37.742Z,100643.65
2019-03-24T13:03:07.319Z,100639.08
2019-03-24T13:05:36.356Z,100641.49
2019-03-24T13:08:30.370Z,100642.30
2019-03-24T13:10:59.449Z,100634.69
2019-03-24T13:13:28.496Z,100629.25
2019-03-24T13:16:01.040Z,100630.05
2019-03-24T13:18:30.238Z,100632.50
2019-03-24T13:20:59.162Z,100630.98
2019-03-24T13:23:28.327Z,100626.81
2019-03-24T13:25:57.328Z,100622.83
2019-03-24T13:28:35.762Z,100613.44
2019-03-24T13:31:04.625Z,100614.86
2019-03-24T13:33:33.540Z,100613.05
2019-03-24T13:36:10.338Z,100607.16
2019-03-24T13:38:39.202Z,100605.08
2019-03-24T13:41:08.592Z,100609.98
2019-03-24T13:43:43.201Z,100608.63
2019-03-24T13:46:12.646Z,100613.30
2019-03-24T13:48:41.751Z,100610.12
2019-03-24T13:51:20.276Z,100610.67
2019-03-24T13:53:49.379Z,100613.69
2019-03-24T13:56:19.403Z,100610.52
2019-03-24T13:58:49.255Z,100610.29
2019-03-24T14:01:18.124Z,100615.12
2019-03-24T14:03:47.008Z,100611.11
2019-03-24T14:06:16.248Z,100609.24
2019-03-24T14:08:45.117Z,100611.66
2019-03-24T14:11:14.281Z,100608.44
2019-03-24T14:13:43.192Z,100602.47
2019-03-24T14:16:12.128Z,100606.48
2019-03-24T14:18:41.342Z,100607.54
2019-03-24T14:21:10.384Z,100601.29
2019-03-24T14:23:39.572Z,100596.94
2019-03-24T14:26:08.500Z,100598.50
2019-03-24T14:28:38.495Z,100591.18
2019-03-24T14:31:07.395Z,100591.15
2019-03-24T14:33:37.101Z,100583.05
2019-03-24T14:36:06.012Z,100587.32
2019-03-24T14:38:35.155Z,100582.92
2019-03-24T14:41:04.949Z,100585.30
2019-03-24T14:43:34.010Z,100584.45
2019-03-24T14:46:03.072Z,100581.72
2019-03-24T14:48:32.303Z,100578.41
2019-03-24T14:51:01.197Z,100580.45
2019-03-24T14:53:30.378Z,100579.78
2019-03-24T14:55:59.370Z,100576.72
2019-03-24T14:58:28.277Z,100578.53
2019-03-24T15:00:57.562Z,100570.13
2019-03-24T15:03:26.442Z,100572.97
2019-03-24T15:05:55.453Z,100572.09
2019-03-24T15:08:25.376Z,100573.60
2019-03-24T15:10:54.275Z,100565.67
2019-03-24T15:13:24.329Z,100572.75
2019-03-24T15:15:53.399Z,100566.36
2019-03-24T15:18:22.415Z,100561.09
2019-03-24T15:20:51.320Z,100560.61
2019-03-24T15:23:23.093Z,100567.33
2019-03-24T15:25:52.493Z,100568.13
2019-03-24T15:28:21.358Z,100562.23
2019-03-24T15:30:50.286Z,100561.94
2019-03-24T15:33:19.160Z,100563.38
2019-03-24T15:35:48.361Z,100561.59
2019-03-24T15:38:17.237Z,100563.20
2019-03-24T15:40:46.140Z,100564.84
2019-03-24T15:43:15.021Z,100561.61
2019-03-24T15:45:44.043Z,100568.64
2019-03-24T15:48:13.096Z,100573.73
2019-03-24T15:50:42.040Z,100571.37
2019-03-24T15:53:10.972Z,100569.48
2019-03-24T15:55:39.912Z,100571.06
2019-03-24T15:58:09.876Z,100563.79
2019-03-24T16:00:47.033Z,100568.84
2019-03-24T16:03:16.271Z,100573.89
2019-03-24T16:05:45.183Z,100576.57
2019-03-24T16:08:14.059Z,100580.47
2019-03-24T16:10:43.341Z,100583.95
2019-03-24T16:13:12.871Z,100580.64
2019-03-24T16:15:41.815Z,100580.59
2019-03-24T16:18:10.770Z,100577.30
2019-03-24T16:20:41.053Z,100575.05
2019-03-24T16:23:10.160Z,100579.97
2019-03-24T16:25:39.530Z,100581.34
2019-03-24T16:28:09.104Z,100586.02
2019-03-24T16:30:38.272Z,100580.25
2019-03-24T16:33:07.283Z,100573.44
2019-03-24T16:35:36.214Z,100573.56
2019-03-24T16:38:05.352Z,100571.09
2019-03-24T16:40:35.005Z,100570.86
2019-03-24T16:43:04.399Z,100577.98
2019-03-24T16:45:35.051Z,100577.42
2019-03-24T16:48:05.151Z,100584.27
2019-03-24T16:50:34.267Z,100584.73
2019-03-24T16:53:03.344Z,100584.64
2019-03-24T16:55:32.581Z,100580.52
2019-03-24T16:58:01.534Z,100584.76
2019-03-24T17:00:30.566Z,100583.36
2019-03-24T17:03:00.344Z,100587.89
2019-03-24T17:05:29.875Z,100591.39
2019-03-24T17:07:59.206Z,100581.61
2019-03-24T17:10:28.064Z,100579.98
2019-03-24T17:12:57.764Z,100583.00
2019-03-24T17:15:27.075Z,100587.09
2019-03-24T17:17:56.089Z,100588.44
2019-03-24T17:20:24.967Z,100584.99
2019-03-24T17:23:00.846Z,100590.32
2019-03-24T17:25:30.246Z,100597.80
2019-03-24T17:27:59.632Z,100594.34
2019-03-24T17:30:28.793Z,100601.50
2019-03-24T17:32:57.981Z,100601.73
2019-03-24T17:35:26.939Z,100607.25
2019-03-24T17:37:57.926Z,100603.13
2019-03-24T17:40:27.046Z,100602.53
2019-03-24T17:42:57.249Z,100604.77
2019-03-24T17:45:26.685Z,100611.30
2019-03-24T17:48:06.707Z,100609.67
2019-03-24T17:50:37.649Z,100609.06
2019-03-24T17:53:07.031Z,100609.27
2019-03-24T17:55:36.370Z,100612.28
2019-03-24T17:58:05.696Z,100611.46
2019-03-24T18:00:42.199Z,100615.63
2019-03-24T18:03:11.357Z,100621.08
2019-03-24T18:05:40.349Z,100619.81
2019-03-24T18:08:09.323Z,100617.55
2019-03-24T18:10:38.589Z,100621.06
2019-03-24T18:13:15.589Z,100623.78
2019-03-24T18:15:48.547Z,100616.89
2019-03-24T18:18:23.026Z,100633.45
2019-03-24T18:20:51.997Z,100625.84
2019-03-24T18:23:23.875Z,100630.17
2019-03-24T18:25:52.852Z,100628.50
2019-03-24T18:28:21.897Z,100631.43
2019-03-24T18:30:50.993Z,100637.37
2019-03-24T18:33:20.336Z,100634.06
2019-03-24T18:35:58.155Z,100635.84
2019-03-24T18:38:27.279Z,100638.09
2019-03-24T18:41:03.657Z,100649.11
2019-03-24T18:43:32.584Z,100647.42
2019-03-24T18:46:02.771Z,100640.75
2019-03-24T18:48:31.703Z,100649.42
2019-03-24T18:51:00.742Z,100649.36
2019-03-24T18:53:30.871Z,100655.73
2019-03-24T18:55:59.758Z,100659.94
2019-03-24T18:58:31.962Z,100661.19
2019-03-24T19:01:00.537Z,100661.42
2019-03-24T19:03:30.715Z,100666.44
2019-03-24T19:05:59.610Z,100670.59
2019-03-24T19:08:28.736Z,100668.84
2019-03-24T19:10:57.641Z,100668.88
2019-03-24T19:13:27.039Z,100672.91
2019-03-24T19:15:56.097Z,100668.88
2019-03-24T19:18:25.148Z,100670.73
2019-03-24T19:20:55.187Z,100666.30
2019-03-24T19:23:26.345Z,100666.88
2019-03-24T19:25:55.528Z,100668.55
2019-03-24T19:28:24.826Z,100670.24
2019-03-24T19:30:53.775Z,100679.83
2019-03-24T19:33:24.161Z,100677.25
2019-03-24T19:35:54.825Z,100674.14
2019-03-24T19:38:25.434Z,100672.58
2019-03-24T19:40:54.456Z,100681.55
2019-03-24T19:43:24.580Z,100678.69
2019-03-24T19:45:53.630Z,100677.14
2019-03-24T19:48:22.818Z,100675.06
2019-03-24T19:50:51.756Z,100687.83
2019-03-24T19:53:20.953Z,100684.74
2019-03-24T19:55:49.902Z,100676.83
2019-03-24T19:58:18.851Z,100682.47
2019-03-24T20:00:47.778Z,100679.16
2019-03-24T20:03:16.714Z,100677.23
2019-03-24T20:05:46.114Z,100673.33
2019-03-24T20:08:15.280Z,100675.36
2019-03-24T20:10:44.792Z,100673.73
2019-03-24T20:13:15.146Z,100667.67
2019-03-24T20:15:44.371Z,100667.05
2019-03-24T20:18:13.570Z,100669.92
2019-03-24T20:20:42.769Z,100671.94
2019-03-24T20:23:11.644Z,100666.88
2019-03-24T20:25:59.169Z,100670.08
2019-03-24T20:28:28.218Z,100671.13
2019-03-24T20:30:59.144Z,100664.91
2019-03-24T20:33:29.517Z,100666.73
2019-03-24T20:35:58.490Z,100670.23
2019-03-24T20:38:27.995Z,100669.45
2019-03-24T20:40:57.549Z,100668.49
2019-03-24T20:43:28.355Z,100666.66
2019-03-24T20:45:57.319Z,100665.38
2019-03-24T20:48:27.497Z,100664.09
2019-03-24T20:51:10.418Z,100659.05
2019-03-24T20:53:39.517Z,100661.84
2019-03-24T20:56:08.544Z,100655.30
2019-03-24T20:58:37.576Z,100660.92
2019-03-24T21:01:07.928Z,100664.53
2019-03-24T21:03:36.960Z,100674.25
2019-03-24T21:06:05.841Z,100682.79
2019-03-24T21:08:34.831Z,100678.84
2019-03-24T21:11:04.079Z,100675.55
2019-03-24T21:13:32.978Z,100678.20
2019-03-24T21:16:02.414Z,100691.32
2019-03-24T21:18:39.756Z,100689.99
2019-03-24T21:21:09.252Z,100690.83
2019-03-24T21:23:45.893Z,100697.24
2019-03-24T21:26:16.049Z,100694.27
2019-03-24T21:28:45.315Z,100688.52
2019-03-24T21:31:14.487Z,100691.44
2019-03-24T21:33:43.517Z,100690.27
2019-03-24T21:36:12.551Z,100691.06
2019-03-24T21:38:41.426Z,100690.26
2019-03-24T21:41:12.211Z,100684.81
2019-03-24T21:43:41.211Z,100688.92
2019-03-24T21:46:10.133Z,100686.95
2019-03-24T21:48:39.098Z,100689.72
2019-03-24T21:51:08.387Z,100683.33
2019-03-24T21:53:40.850Z,100680.38
2019-03-24T21:56:08.641Z,100679.06
2019-03-24T21:58:37.552Z,100676.60
2019-03-24T22:01:07.149Z,100683.66
2019-03-24T22:03:36.517Z,100681.53
2019-03-24T22:06:05.461Z,100686.78
2019-03-24T22:08:34.363Z,100691.70
2019-03-24T22:11:03.749Z,100685.59
2019-03-24T22:13:32.670Z,100687.77
2019-03-24T22:16:01.551Z,100684.95
2019-03-24T22:18:30.825Z,100682.48
2019-03-24T22:21:00.981Z,100681.02
2019-03-24T22:23:29.898Z,100675.58
2019-03-24T22:25:59.033Z,100676.41
2019-03-24T22:28:27.955Z,100672.44
2019-03-24T22:30:56.831Z,100676.84
2019-03-24T22:33:27.727Z,100675.38
2019-03-24T22:35:57.834Z,100664.84
2019-03-24T22:38:27.469Z,100671.24
2019-03-24T22:40:56.323Z,100672.89
2019-03-24T22:43:27.016Z,100666.80
2019-03-24T22:45:55.897Z,100671.84
2019-03-24T22:48:24.798Z,100672.96
2019-03-24T22:50:53.800Z,100674.57
2019-03-24T22:53:22.721Z,100676.99
2019-03-24T22:55:51.595Z,100676.14
2019-03-24T22:58:20.524Z,100670.56
2019-03-24T23:00:55.015Z,100674.98
2019-03-24T23:03:25.255Z,100671.38
2019-03-24T23:05:54.936Z,100675.52
2019-03-24T23:08:23.844Z,100671.58
2019-03-24T23:10:52.738Z,100667.98
2019-03-24T23:13:21.639Z,100668.30
2019-03-24T23:15:50.537Z,100666.02
2019-03-24T23:18:19.802Z,100656.67
2019-03-24T23:20:48.732Z,100653.88
2019-03-24T23:23:17.745Z,100656.54
2019-03-24T23:25:46.673Z,100656.87
2019-03-24T23:28:15.860Z,100653.13
2019-03-24T23:30:44.876Z,100651.81
2019-03-24T23:33:15.697Z,100650.34
2019-03-24T23:35:45.516Z,100651.16
2019-03-24T23:38:14.556Z,100651.16
2019-03-24T23:40:43.601Z,100649.36
2019-03-24T23:43:12.574Z,100654.44
2019-03-24T23:45:41.808Z,100651.16
2019-03-24T23:48:11.064Z,100657.09
2019-03-24T23:50:41.105Z,100655.13
2019-03-24T23:53:09.945Z,100657.09
2019-03-24T23:55:39.128Z,100656.47
2019-03-24T23:58:07.990Z,100652.86
